Pagrindinis puslapis
METAR-TAF:

METAR-TAF

Oro uostai :

Maradis, Nigeris

platuma: 13-28N, ilguma: 007-05E, Aukštis: 372 m

Dabartinis oras

Ataskaita buvo paskelbta 5 valandos ir 41 minutes, ne 18:00 UTC
Vėjas 4 kt iš Vakarų/Pietvakarių
Temperatūra 31°C
Drėgmė 71%
Slėgis 1009 hPa
Matomumas 10 km arba daugiau
nėra debesų žemiau 1500 m ir nėra kamuolinių lietaus debesų

METAR: DRRM 241800Z 25004KT CAVOK 31/25 Q1009

Laikas: 00:41 (23:41 UTC)


TAF: trūkstamas

Orai ataskaitas ir orų prognozės (METAR, TAF).

turimą stotys yra geltonos ir raudonos taškus žemėlapyje.

Perkelti pele per norėdami pamatyti stoties vardą.

Tada spustelėkite, norėdami matyti oro stebėjimo ir prognozės.

Norėdami pakeisti žemėlapį: spustelėkite ant žalios mygtukų su juodo kryžiaus žemyn,; žalią mygtuką su brūkšneliu, jei norite nutolinti; arba žalių rodyklių gretimoms žemėlapius.


METAR-TAF: